createdAt,value
2018-09-28T00:00:52.749Z,10.27
2018-09-28T00:05:58.656Z,10.25
2018-09-28T00:11:02.257Z,10.16
2018-09-28T00:16:05.861Z,10.12
2018-09-28T00:21:09.482Z,10.13
2018-09-28T00:26:13.092Z,10.12
2018-09-28T00:31:16.662Z,10.01
2018-09-28T00:36:24.418Z,10.03
2018-09-28T00:41:28.095Z,9.99
2018-09-28T00:46:31.831Z,9.84
2018-09-28T00:51:35.373Z,9.73
2018-09-28T00:56:39.019Z,9.79
2018-09-28T01:01:42.641Z,9.75
2018-09-28T01:06:46.180Z,9.52
2018-09-28T01:11:49.971Z,9.45
2018-09-28T01:16:53.545Z,9.30
2018-09-28T01:21:57.154Z,9.15
2018-09-28T01:27:00.731Z,9.11
2018-09-28T01:32:04.388Z,9.13
2018-09-28T01:37:08.275Z,9.23
2018-09-28T01:42:11.933Z,9.23
2018-09-28T01:47:15.625Z,9.20
2018-09-28T01:52:19.344Z,9.12
2018-09-28T01:57:22.938Z,9.04
2018-09-28T02:02:26.752Z,9.06
2018-09-28T02:07:30.502Z,8.93
2018-09-28T02:12:34.158Z,8.66
2018-09-28T02:17:37.762Z,8.77
2018-09-28T02:22:41.365Z,8.80
2018-09-28T02:27:44.938Z,8.75
2018-09-28T02:32:48.470Z,8.86
2018-09-28T02:37:52.088Z,8.93
2018-09-28T02:42:57.868Z,9.05
2018-09-28T02:48:01.484Z,9.12
2018-09-28T02:53:05.109Z,9.43
2018-09-28T02:58:08.668Z,9.60
2018-09-28T03:03:12.321Z,9.78
2018-09-28T03:08:15.966Z,10.01
2018-09-28T03:13:19.674Z,10.08
2018-09-28T03:18:23.262Z,9.95
2018-09-28T03:23:26.839Z,9.93
2018-09-28T03:28:30.431Z,9.86
2018-09-28T03:33:34.262Z,9.97
2018-09-28T03:38:37.889Z,9.96
2018-09-28T03:43:41.602Z,10.13
2018-09-28T03:48:45.225Z,10.33
2018-09-28T03:53:52.536Z,10.55
2018-09-28T03:58:56.640Z,10.51
2018-09-28T04:04:00.242Z,10.43
2018-09-28T04:09:04.892Z,10.55
2018-09-28T04:14:08.777Z,10.77
2018-09-28T04:19:12.453Z,10.63
2018-09-28T04:24:16.133Z,10.50
2018-09-28T04:29:19.758Z,10.64
2018-09-28T04:34:23.310Z,10.90
2018-09-28T04:39:26.857Z,11.02
2018-09-28T04:44:30.506Z,11.10
2018-09-28T04:49:34.120Z,11.15
2018-09-28T04:54:37.618Z,11.16
2018-09-28T04:59:41.235Z,11.13
2018-09-28T05:04:44.854Z,10.86
2018-09-28T05:09:48.487Z,11.00
2018-09-28T05:14:52.100Z,10.51
2018-09-28T05:19:55.650Z,10.81
2018-09-28T05:25:00.501Z,10.82
2018-09-28T05:30:04.388Z,10.77
2018-09-28T05:35:08.055Z,10.81
2018-09-28T05:40:11.685Z,10.96
2018-09-28T05:45:15.246Z,11.16
2018-09-28T05:50:19.286Z,11.30
2018-09-28T05:55:22.894Z,11.18
2018-09-28T06:00:37.609Z,10.89
2018-09-28T06:05:42.817Z,10.87
2018-09-28T06:10:46.567Z,10.93
2018-09-28T06:15:50.179Z,11.16
2018-09-28T06:20:53.872Z,11.17
2018-09-28T06:25:57.532Z,11.09
2018-09-28T06:31:01.166Z,11.10
2018-09-28T06:36:04.758Z,11.09
2018-09-28T06:41:08.261Z,11.22
2018-09-28T06:46:11.857Z,11.43
2018-09-28T06:51:15.509Z,11.64
2018-09-28T06:56:19.204Z,11.85
2018-09-28T07:01:23.203Z,11.86
2018-09-28T07:06:27.553Z,12.00
2018-09-28T07:11:32.208Z,11.95
2018-09-28T07:16:37.316Z,12.10
2018-09-28T07:21:41.073Z,12.25
2018-09-28T07:26:46.072Z,12.23
2018-09-28T07:31:51.608Z,12.48
2018-09-28T07:36:56.076Z,12.49
2018-09-28T07:41:59.656Z,12.47
2018-09-28T07:47:03.177Z,12.57
2018-09-28T07:52:06.769Z,12.73
2018-09-28T07:57:10.460Z,12.88
2018-09-28T08:02:14.214Z,13.13
2018-09-28T08:07:18.896Z,13.23
2018-09-28T08:12:24.141Z,13.36
2018-09-28T08:17:28.026Z,13.47
2018-09-28T08:22:31.724Z,13.73
2018-09-28T08:27:35.628Z,14.01
2018-09-28T08:32:45.033Z,14.00
2018-09-28T08:37:52.542Z,14.04
2018-09-28T08:42:59.767Z,14.09
2018-09-28T08:48:04.155Z,13.97
2018-09-28T08:53:08.185Z,14.15
2018-09-28T08:58:11.792Z,14.31
2018-09-28T09:03:15.454Z,14.60
2018-09-28T09:08:19.071Z,14.40
2018-09-28T09:13:22.742Z,14.53
2018-09-28T09:18:26.466Z,14.43
2018-09-28T09:23:30.072Z,14.92
2018-09-28T09:28:33.659Z,14.78
2018-09-28T09:33:37.328Z,14.93
2018-09-28T09:38:40.961Z,15.15
2018-09-28T09:43:48.478Z,15.41
2018-09-28T09:48:52.063Z,15.46
2018-09-28T09:53:55.680Z,15.48
2018-09-28T09:58:59.238Z,15.14
2018-09-28T10:04:10.023Z,15.22
2018-09-28T10:09:14.675Z,15.21
2018-09-28T10:14:18.249Z,15.51
2018-09-28T10:19:22.155Z,15.49
2018-09-28T10:24:25.778Z,15.42
2018-09-28T10:29:29.508Z,15.44
2018-09-28T10:34:33.102Z,15.60
2018-09-28T10:39:36.963Z,15.81
2018-09-28T10:44:40.578Z,15.99
2018-09-28T10:49:56.064Z,16.62
2018-09-28T10:54:59.665Z,16.92
2018-09-28T11:00:03.450Z,16.30
2018-09-28T11:05:07.260Z,16.14
2018-09-28T11:10:10.876Z,16.10
2018-09-28T11:15:14.563Z,16.11
2018-09-28T11:20:18.412Z,16.43
2018-09-28T11:25:22.159Z,17.06
2018-09-28T11:30:28.926Z,17.37
2018-09-28T11:35:32.688Z,17.08
2018-09-28T11:40:36.468Z,17.04
2018-09-28T11:45:40.115Z,16.53
2018-09-28T11:50:43.771Z,16.74
2018-09-28T11:55:47.461Z,16.85
2018-09-28T12:00:51.324Z,16.53
2018-09-28T12:05:55.040Z,16.52
2018-09-28T12:10:58.805Z,16.48
2018-09-28T12:16:02.360Z,16.65
2018-09-28T12:21:05.956Z,16.90
2018-09-28T12:26:09.592Z,17.34
2018-09-28T12:31:13.229Z,17.44
2018-09-28T12:36:16.868Z,17.36
2018-09-28T12:41:20.513Z,17.18
2018-09-28T12:46:24.212Z,17.24
2018-09-28T12:51:27.809Z,17.41
2018-09-28T12:56:31.390Z,16.86
2018-09-28T13:01:35.391Z,16.58
2018-09-28T13:06:39.071Z,16.46
2018-09-28T13:11:42.656Z,16.68
2018-09-28T13:16:46.415Z,17.12
2018-09-28T13:21:50.072Z,16.99
2018-09-28T13:26:57.637Z,16.77
2018-09-28T13:32:01.305Z,16.72
2018-09-28T13:37:04.877Z,16.94
2018-09-28T13:42:08.559Z,17.22
2018-09-28T13:47:12.170Z,17.74
2018-09-28T13:52:15.883Z,17.84
2018-09-28T13:57:19.674Z,17.51
2018-09-28T14:02:26.450Z,16.91
2018-09-28T14:07:29.929Z,16.35
2018-09-28T14:12:33.690Z,16.54
2018-09-28T14:17:38.239Z,16.75
2018-09-28T14:22:41.892Z,16.99
2018-09-28T14:27:45.552Z,17.18
2018-09-28T14:32:51.756Z,17.29
2018-09-28T14:37:55.454Z,17.68
2018-09-28T14:42:58.999Z,18.13
2018-09-28T14:48:02.591Z,17.99
2018-09-28T14:53:06.193Z,17.25
2018-09-28T14:58:09.860Z,16.45
2018-09-28T15:03:13.463Z,16.18
2018-09-28T15:08:17.117Z,15.95
2018-09-28T15:13:20.697Z,15.57
2018-09-28T15:18:24.333Z,15.54
2018-09-28T15:23:27.920Z,15.50
2018-09-28T15:28:31.509Z,15.56
2018-09-28T15:33:35.158Z,15.39
2018-09-28T15:38:38.723Z,15.43
2018-09-28T15:43:42.275Z,15.47
2018-09-28T15:48:45.842Z,15.40
2018-09-28T15:53:49.476Z,15.32
2018-09-28T15:58:53.136Z,15.33
2018-09-28T16:03:56.736Z,15.34
2018-09-28T16:09:00.282Z,15.26
2018-09-28T16:14:03.927Z,15.04
2018-09-28T16:19:07.539Z,14.97
2018-09-28T16:24:11.136Z,14.81
2018-09-28T16:29:14.745Z,14.66
2018-09-28T16:34:18.355Z,14.38
2018-09-28T16:39:21.975Z,14.31
2018-09-28T16:44:25.573Z,14.21
2018-09-28T16:49:29.276Z,14.20
2018-09-28T16:54:32.860Z,14.04
2018-09-28T16:59:36.547Z,13.93
2018-09-28T17:04:40.153Z,13.71
2018-09-28T17:09:46.295Z,13.53
2018-09-28T17:14:49.907Z,13.24
2018-09-28T17:19:53.561Z,13.31
2018-09-28T17:24:57.213Z,12.97
2018-09-28T17:30:00.829Z,12.75
2018-09-28T17:35:04.434Z,12.59
2018-09-28T17:40:08.074Z,12.44
2018-09-28T17:45:11.771Z,12.27
2018-09-28T17:50:15.475Z,12.10
2018-09-28T17:55:19.055Z,11.96
2018-09-28T18:00:34.114Z,11.76
2018-09-28T18:05:37.759Z,11.64
2018-09-28T18:10:41.262Z,11.52
2018-09-28T18:15:44.910Z,11.43
2018-09-28T18:20:48.484Z,11.34
2018-09-28T18:25:52.068Z,11.29
2018-09-28T18:30:55.978Z,11.13
2018-09-28T18:35:59.673Z,11.05
2018-09-28T18:41:03.215Z,10.97
2018-09-28T18:46:06.987Z,10.96
2018-09-28T18:51:10.574Z,10.94
2018-09-28T18:56:14.180Z,10.92
2018-09-28T19:01:18.042Z,10.88
2018-09-28T19:06:21.905Z,10.79
2018-09-28T19:11:25.538Z,10.61
2018-09-28T19:16:29.343Z,10.61
2018-09-28T19:21:33.010Z,10.52
2018-09-28T19:26:36.729Z,10.43
2018-09-28T19:31:41.195Z,10.35
2018-09-28T19:36:44.859Z,10.27
2018-09-28T19:41:48.674Z,10.14
2018-09-28T19:46:52.583Z,10.00
2018-09-28T19:51:56.136Z,9.67
2018-09-28T19:56:59.848Z,9.28
2018-09-28T20:02:07.390Z,9.41
2018-09-28T20:07:10.950Z,9.34
2018-09-28T20:12:14.497Z,9.25
2018-09-28T20:17:18.233Z,9.20
2018-09-28T20:22:21.858Z,9.21
2018-09-28T20:27:25.429Z,9.07
2018-09-28T20:32:28.984Z,8.98
2018-09-28T20:37:32.992Z,8.96
2018-09-28T20:42:36.932Z,8.89
2018-09-28T20:47:40.541Z,8.75
2018-09-28T20:52:53.353Z,8.68
2018-09-28T20:57:57.172Z,8.68
2018-09-28T21:03:00.779Z,8.49
2018-09-28T21:08:04.321Z,8.41
2018-09-28T21:13:07.998Z,8.25
2018-09-28T21:18:11.749Z,8.20
2018-09-28T21:23:15.354Z,8.21
2018-09-28T21:28:19.160Z,8.18
2018-09-28T21:33:22.802Z,8.15
2018-09-28T21:38:26.970Z,8.16
2018-09-28T21:43:30.571Z,8.09
2018-09-28T21:48:34.103Z,7.98
2018-09-28T21:53:37.840Z,7.84
2018-09-28T21:58:41.500Z,7.86
2018-09-28T22:03:45.355Z,7.81
2018-09-28T22:08:48.914Z,7.72
2018-09-28T22:13:52.486Z,7.65
2018-09-28T22:18:56.125Z,7.73
2018-09-28T22:23:59.686Z,7.63
2018-09-28T22:29:03.268Z,7.52
2018-09-28T22:34:06.783Z,7.44
2018-09-28T22:39:11.675Z,7.37
2018-09-28T22:44:15.201Z,7.20
2018-09-28T22:49:18.910Z,7.13
2018-09-28T22:54:22.473Z,7.08
2018-09-28T22:59:26.063Z,6.98
2018-09-28T23:04:29.724Z,6.85
2018-09-28T23:09:33.339Z,6.68
2018-09-28T23:14:36.881Z,6.71
2018-09-28T23:19:40.410Z,6.71
2018-09-28T23:24:44.152Z,6.71
2018-09-28T23:29:47.810Z,6.66
2018-09-28T23:34:51.304Z,6.61
2018-09-28T23:39:55.027Z,6.55
2018-09-28T23:44:58.765Z,6.54
2018-09-28T23:50:02.424Z,6.43
2018-09-28T23:55:05.969Z,6.39
